Corydon, IN (47112)

2:25 PM EST on February 14, 2016 (GMT -0500)
k9set Harrison county skywarn | | Change Station
CLOSE
Current Station
Personal Weather Station
Location: corydon, IN
Elevation: 649 ft
Nearby Weather Stations
Active Advisory: Winter Weather Advisory Active Notice: Public Information Statement

Elev 649 ft 38.21 °N, 86.11 °W | Updated 8 seconds ago

Snow
Snow
20.5 °F
Feels Like 14 °F
N
5.0
Wind Variable Wind from ESE
Gusts 10.0 mph

Today
High -- | Low -- °F
--% Chance of Precip.
Yesterday
High -- | Low -- °F
Precip. -- in
Pressure 30.21 in
Visibility 0.8 miles
Clouds Mostly Cloudy 3000 ft
Overcast 3900 ft
Windchill 14 °F
Dew Point 16 °F
Humidity 83%
Rainfall 0.00 in
Snow Depth Not available.
7:36 AM 6:21 PM
Waxing Crescent, 44% visible
SPECI KSDF 141923Z 10009KT 3/4SM R35R/P6000FT -SN BKN030 OVC039 M06/M10 A3021 RMK AO2 P0001 T10561100
Pressure 30.21 in
Visibility 0.8 miles
Clouds Mostly Cloudy 3000 ft
Overcast 3900 ft
Windchill 14 °F
Dew Point 16 °F
Humidity 83%
Rainfall 0.00 in
Snow Depth Not available.
7:36 AM 6:21 PM
Waxing Crescent, 44% visible
SPECI KSDF 141923Z 10009KT 3/4SM R35R/P6000FT -SN BKN030 OVC039 M06/M10 A3021 RMK AO2 P0001 T10561100

10-Day Weather Forecast

Almanac

Astronomy

Feb. 14, 2016 Rise Set
Actual Time
Civil Twilight
Nautical Twilight
Astronomical Twilight
Moon
Length of Visible Light
Length of Day
Tomorrow will be .
, % of the Moon is Illuminated

Today's Extremes

State Highs State Lows

Community

WunderPhotos

Upload Photos

1,892,875 photos uploaded!

WunderBlog® & News

Nearby

Air Quality

  Air Quality AQ Index Pollutant
Not available.

Snow Depth

Station Depth Elevation

Earthquake Activity

City Distance Mag. Time & Date
Minimum magnitude displayed is 2.5.

Coastal Water Temperatures

Place Temperature

Stations

Nearby Weather Stations

Station Location Temp. Windchill Dew Point Humidity Wind Precip. Elev Updated Type
                   

Watches & Warnings

Winter Weather Advisory
Issued: 11:45 AM EST Feb. 14, 2016 – National Weather Service

... Winter Weather Advisory remains in effect until 10 am EST
Monday...

* timing... accumulating snows will develop by mid afternoon and
continue through this evening.

* Accumulations... 2 to 4 inches... with locally higher amounts
possible.

* Impacts... there is a chance of a brief period of freezing
drizzle late Sunday night before transitioning to drizzle or
rain Monday morning.

Precautionary/preparedness actions...

A Winter Weather Advisory for snow means that periods of snow
will cause primarily travel difficulties. Be prepared for snow
covered roads and limited visibilities... and use caution while
driving.